sensor_id;sensor_type;location;lat;lon;timestamp;P1;durP1;ratioP1;P2;durP2;ratioP2
21979;SDS011;11154;48.558;9.234;2023-12-22T00:01:10;2.60;;;0.60;;
21979;SDS011;11154;48.558;9.234;2023-12-22T00:03:15;3.78;;;1.20;;
21979;SDS011;11154;48.558;9.234;2023-12-22T00:05:15;1.10;;;0.63;;
21979;SDS011;11154;48.558;9.234;2023-12-22T00:07:18;1.00;;;0.45;;
21979;SDS011;11154;48.558;9.234;2023-12-22T00:09:21;1.30;;;0.52;;
21979;SDS011;11154;48.558;9.234;2023-12-22T00:11:22;1.23;;;0.28;;
21979;SDS011;11154;48.558;9.234;2023-12-22T00:13:23;1.08;;;0.50;;
21979;SDS011;11154;48.558;9.234;2023-12-22T00:15:25;1.02;;;0.30;;
21979;SDS011;11154;48.558;9.234;2023-12-22T00:17:27;2.13;;;0.68;;
21979;SDS011;11154;48.558;9.234;2023-12-22T00:19:28;2.78;;;0.60;;
21979;SDS011;11154;48.558;9.234;2023-12-22T00:21:30;2.30;;;0.60;;
21979;SDS011;11154;48.558;9.234;2023-12-22T00:23:33;2.47;;;0.85;;
21979;SDS011;11154;48.558;9.234;2023-12-22T00:25:35;1.98;;;0.65;;
21979;SDS011;11154;48.558;9.234;2023-12-22T00:27:37;3.35;;;0.63;;
21979;SDS011;11154;48.558;9.234;2023-12-22T00:29:39;3.42;;;0.90;;
21979;SDS011;11154;48.558;9.234;2023-12-22T00:31:40;4.03;;;1.00;;
21979;SDS011;11154;48.558;9.234;2023-12-22T00:33:42;2.40;;;0.77;;
21979;SDS011;11154;48.558;9.234;2023-12-22T00:35:43;4.40;;;1.38;;
21979;SDS011;11154;48.558;9.234;2023-12-22T00:37:45;3.33;;;0.95;;
21979;SDS011;11154;48.558;9.234;2023-12-22T00:39:48;1.17;;;0.65;;
21979;SDS011;11154;48.558;9.234;2023-12-22T00:41:50;3.15;;;1.08;;
21979;SDS011;11154;48.558;9.234;2023-12-22T00:43:51;2.05;;;1.08;;
21979;SDS011;11154;48.558;9.234;2023-12-22T00:45:53;4.40;;;1.08;;
21979;SDS011;11154;48.558;9.234;2023-12-22T00:47:56;4.97;;;1.15;;
21979;SDS011;11154;48.558;9.234;2023-12-22T00:49:57;2.72;;;0.95;;
21979;SDS011;11154;48.558;9.234;2023-12-22T00:51:58;4.78;;;1.10;;
21979;SDS011;11154;48.558;9.234;2023-12-22T00:54:00;1.65;;;0.63;;
21979;SDS011;11154;48.558;9.234;2023-12-22T00:56:04;3.88;;;1.13;;
21979;SDS011;11154;48.558;9.234;2023-12-22T00:58:06;3.85;;;0.90;;
21979;SDS011;11154;48.558;9.234;2023-12-22T01:00:08;3.95;;;1.30;;
21979;SDS011;11154;48.558;9.234;2023-12-22T01:02:12;4.18;;;1.10;;
21979;SDS011;11154;48.558;9.234;2023-12-22T01:04:13;3.65;;;1.02;;
21979;SDS011;11154;48.558;9.234;2023-12-22T01:06:15;3.80;;;1.20;;
21979;SDS011;11154;48.558;9.234;2023-12-22T01:08:17;5.93;;;1.13;;
21979;SDS011;11154;48.558;9.234;2023-12-22T01:10:18;7.55;;;1.30;;
21979;SDS011;11154;48.558;9.234;2023-12-22T01:12:22;4.53;;;1.05;;
21979;SDS011;11154;48.558;9.234;2023-12-22T01:14:24;3.70;;;1.10;;
21979;SDS011;11154;48.558;9.234;2023-12-22T01:16:24;2.05;;;0.90;;
21979;SDS011;11154;48.558;9.234;2023-12-22T01:18:26;2.42;;;0.90;;
21979;SDS011;11154;48.558;9.234;2023-12-22T01:20:30;5.32;;;1.20;;
21979;SDS011;11154;48.558;9.234;2023-12-22T01:22:31;3.00;;;0.82;;
21979;SDS011;11154;48.558;9.234;2023-12-22T01:24:34;2.25;;;1.00;;
21979;SDS011;11154;48.558;9.234;2023-12-22T01:26:39;2.20;;;0.90;;
21979;SDS011;11154;48.558;9.234;2023-12-22T01:28:42;2.83;;;0.80;;
21979;SDS011;11154;48.558;9.234;2023-12-22T01:30:44;6.35;;;1.75;;
21979;SDS011;11154;48.558;9.234;2023-12-22T01:32:45;3.13;;;1.20;;
21979;SDS011;11154;48.558;9.234;2023-12-22T01:34:47;2.72;;;0.90;;
21979;SDS011;11154;48.558;9.234;2023-12-22T01:36:49;2.70;;;1.00;;
21979;SDS011;11154;48.558;9.234;2023-12-22T01:38:50;4.78;;;1.35;;
21979;SDS011;11154;48.558;9.234;2023-12-22T01:40:52;2.63;;;0.73;;
21979;SDS011;11154;48.558;9.234;2023-12-22T01:42:54;1.58;;;0.55;;
21979;SDS011;11154;48.558;9.234;2023-12-22T01:44:56;1.58;;;0.60;;
21979;SDS011;11154;48.558;9.234;2023-12-22T01:46:57;0.77;;;0.40;;
21979;SDS011;11154;48.558;9.234;2023-12-22T01:49:00;0.85;;;0.25;;
21979;SDS011;11154;48.558;9.234;2023-12-22T01:51:02;0.73;;;0.30;;
21979;SDS011;11154;48.558;9.234;2023-12-22T01:53:05;0.88;;;0.45;;
21979;SDS011;11154;48.558;9.234;2023-12-22T01:55:07;1.52;;;0.50;;
21979;SDS011;11154;48.558;9.234;2023-12-22T01:57:13;1.05;;;0.17;;
21979;SDS011;11154;48.558;9.234;2023-12-22T01:59:17;0.60;;;0.20;;
21979;SDS011;11154;48.558;9.234;2023-12-22T02:01:20;0.40;;;0.20;;
21979;SDS011;11154;48.558;9.234;2023-12-22T02:03:23;0.77;;;0.30;;
21979;SDS011;11154;48.558;9.234;2023-12-22T02:05:25;0.65;;;0.20;;
21979;SDS011;11154;48.558;9.234;2023-12-22T02:07:29;1.33;;;0.30;;
21979;SDS011;11154;48.558;9.234;2023-12-22T02:09:30;0.17;;;0.10;;
21979;SDS011;11154;48.558;9.234;2023-12-22T02:11:31;0.30;;;0.20;;
21979;SDS011;11154;48.558;9.234;2023-12-22T02:13:33;0.45;;;0.30;;
21979;SDS011;11154;48.558;9.234;2023-12-22T02:15:35;0.70;;;0.20;;
21979;SDS011;11154;48.558;9.234;2023-12-22T02:17:42;2.83;;;0.30;;
21979;SDS011;11154;48.558;9.234;2023-12-22T02:19:49;1.38;;;0.38;;
21979;SDS011;11154;48.558;9.234;2023-12-22T02:22:01;2.47;;;0.82;;
21979;SDS011;11154;48.558;9.234;2023-12-22T02:24:05;1.48;;;0.60;;
21979;SDS011;11154;48.558;9.234;2023-12-22T02:26:16;1.42;;;0.40;;
21979;SDS011;11154;48.558;9.234;2023-12-22T02:28:23;0.95;;;0.50;;
21979;SDS011;11154;48.558;9.234;2023-12-22T02:30:25;0.55;;;0.40;;
21979;SDS011;11154;48.558;9.234;2023-12-22T02:32:32;2.85;;;0.70;;
21979;SDS011;11154;48.558;9.234;2023-12-22T02:34:36;1.48;;;0.68;;
21979;SDS011;11154;48.558;9.234;2023-12-22T02:36:38;1.65;;;0.75;;
21979;SDS011;11154;48.558;9.234;2023-12-22T02:38:41;2.38;;;0.80;;
21979;SDS011;11154;48.558;9.234;2023-12-22T02:40:46;1.00;;;0.50;;
21979;SDS011;11154;48.558;9.234;2023-12-22T02:42:48;1.80;;;0.77;;
21979;SDS011;11154;48.558;9.234;2023-12-22T02:44:50;2.92;;;1.08;;
21979;SDS011;11154;48.558;9.234;2023-12-22T02:46:52;1.30;;;0.50;;
21979;SDS011;11154;48.558;9.234;2023-12-22T02:48:54;2.97;;;0.75;;
21979;SDS011;11154;48.558;9.234;2023-12-22T02:50:55;5.18;;;1.23;;
21979;SDS011;11154;48.558;9.234;2023-12-22T02:52:57;2.20;;;0.93;;
21979;SDS011;11154;48.558;9.234;2023-12-22T02:54:59;3.33;;;0.80;;
21979;SDS011;11154;48.558;9.234;2023-12-22T02:57:02;3.13;;;1.20;;
21979;SDS011;11154;48.558;9.234;2023-12-22T02:59:03;4.40;;;1.05;;
21979;SDS011;11154;48.558;9.234;2023-12-22T03:01:04;4.07;;;1.10;;
21979;SDS011;11154;48.558;9.234;2023-12-22T03:03:06;1.95;;;0.85;;
21979;SDS011;11154;48.558;9.234;2023-12-22T03:05:07;4.30;;;1.10;;
21979;SDS011;11154;48.558;9.234;2023-12-22T03:07:09;3.50;;;1.10;;
21979;SDS011;11154;48.558;9.234;2023-12-22T03:09:10;4.22;;;1.38;;
21979;SDS011;11154;48.558;9.234;2023-12-22T03:11:12;3.53;;;1.17;;
21979;SDS011;11154;48.558;9.234;2023-12-22T03:13:15;2.47;;;0.90;;
21979;SDS011;11154;48.558;9.234;2023-12-22T03:15:17;2.58;;;0.95;;
21979;SDS011;11154;48.558;9.234;2023-12-22T03:17:18;2.10;;;1.00;;
21979;SDS011;11154;48.558;9.234;2023-12-22T03:19:20;2.03;;;0.88;;
21979;SDS011;11154;48.558;9.234;2023-12-22T03:21:22;2.63;;;1.05;;
21979;SDS011;11154;48.558;9.234;2023-12-22T03:23:24;3.13;;;1.10;;
21979;SDS011;11154;48.558;9.234;2023-12-22T03:25:26;2.42;;;0.88;;
21979;SDS011;11154;48.558;9.234;2023-12-22T03:27:27;1.75;;;0.70;;
21979;SDS011;11154;48.558;9.234;2023-12-22T03:29:30;2.03;;;0.80;;
21979;SDS011;11154;48.558;9.234;2023-12-22T03:31:31;2.35;;;0.80;;
21979;SDS011;11154;48.558;9.234;2023-12-22T03:33:32;1.52;;;0.65;;
21979;SDS011;11154;48.558;9.234;2023-12-22T03:35:34;1.63;;;0.77;;
21979;SDS011;11154;48.558;9.234;2023-12-22T03:37:35;3.58;;;0.95;;
21979;SDS011;11154;48.558;9.234;2023-12-22T03:39:37;0.73;;;0.43;;
21979;SDS011;11154;48.558;9.234;2023-12-22T03:41:39;1.13;;;0.40;;
21979;SDS011;11154;48.558;9.234;2023-12-22T03:43:39;2.33;;;1.15;;
21979;SDS011;11154;48.558;9.234;2023-12-22T03:45:42;2.35;;;0.70;;
21979;SDS011;11154;48.558;9.234;2023-12-22T03:47:44;0.70;;;0.50;;
21979;SDS011;11154;48.558;9.234;2023-12-22T03:49:44;2.70;;;0.77;;
21979;SDS011;11154;48.558;9.234;2023-12-22T03:51:46;1.90;;;0.60;;
21979;SDS011;11154;48.558;9.234;2023-12-22T03:53:47;1.52;;;0.52;;
21979;SDS011;11154;48.558;9.234;2023-12-22T03:55:48;2.13;;;0.73;;
21979;SDS011;11154;48.558;9.234;2023-12-22T03:57:50;1.70;;;0.63;;
21979;SDS011;11154;48.558;9.234;2023-12-22T03:59:51;2.70;;;0.70;;
21979;SDS011;11154;48.558;9.234;2023-12-22T04:01:54;1.65;;;0.60;;
21979;SDS011;11154;48.558;9.234;2023-12-22T04:03:57;3.25;;;0.80;;
21979;SDS011;11154;48.558;9.234;2023-12-22T04:06:00;1.83;;;0.60;;
21979;SDS011;11154;48.558;9.234;2023-12-22T04:08:03;1.65;;;0.90;;
21979;SDS011;11154;48.558;9.234;2023-12-22T04:10:04;2.13;;;0.80;;
21979;SDS011;11154;48.558;9.234;2023-12-22T04:12:07;1.95;;;0.60;;
21979;SDS011;11154;48.558;9.234;2023-12-22T04:14:08;3.42;;;0.80;;
21979;SDS011;11154;48.558;9.234;2023-12-22T04:16:10;4.38;;;0.75;;
21979;SDS011;11154;48.558;9.234;2023-12-22T04:18:13;3.28;;;0.68;;
21979;SDS011;11154;48.558;9.234;2023-12-22T04:20:15;1.75;;;0.57;;
21979;SDS011;11154;48.558;9.234;2023-12-22T04:22:15;1.73;;;0.70;;
21979;SDS011;11154;48.558;9.234;2023-12-22T04:24:19;3.05;;;0.73;;
21979;SDS011;11154;48.558;9.234;2023-12-22T04:26:20;3.13;;;0.57;;
21979;SDS011;11154;48.558;9.234;2023-12-22T04:28:22;3.58;;;0.80;;
21979;SDS011;11154;48.558;9.234;2023-12-22T04:30:23;3.58;;;1.10;;
21979;SDS011;11154;48.558;9.234;2023-12-22T04:32:26;5.00;;;1.20;;
21979;SDS011;11154;48.558;9.234;2023-12-22T04:34:29;2.65;;;0.82;;
21979;SDS011;11154;48.558;9.234;2023-12-22T04:36:30;4.90;;;1.33;;
21979;SDS011;11154;48.558;9.234;2023-12-22T04:38:32;2.67;;;0.90;;
21979;SDS011;11154;48.558;9.234;2023-12-22T04:40:33;3.85;;;1.00;;
21979;SDS011;11154;48.558;9.234;2023-12-22T04:42:34;5.90;;;1.60;;
21979;SDS011;11154;48.558;9.234;2023-12-22T04:44:36;3.33;;;0.85;;
21979;SDS011;11154;48.558;9.234;2023-12-22T04:46:38;6.05;;;1.30;;
21979;SDS011;11154;48.558;9.234;2023-12-22T04:48:39;5.38;;;1.02;;
21979;SDS011;11154;48.558;9.234;2023-12-22T04:50:42;2.28;;;0.93;;
21979;SDS011;11154;48.558;9.234;2023-12-22T04:52:44;4.60;;;1.30;;
21979;SDS011;11154;48.558;9.234;2023-12-22T04:54:45;6.88;;;1.42;;
21979;SDS011;11154;48.558;9.234;2023-12-22T04:56:47;3.80;;;0.93;;
21979;SDS011;11154;48.558;9.234;2023-12-22T04:58:49;3.42;;;1.20;;
21979;SDS011;11154;48.558;9.234;2023-12-22T05:00:50;4.68;;;1.42;;
21979;SDS011;11154;48.558;9.234;2023-12-22T05:02:52;4.72;;;1.20;;
21979;SDS011;11154;48.558;9.234;2023-12-22T05:04:53;3.03;;;1.10;;
21979;SDS011;11154;48.558;9.234;2023-12-22T05:06:56;4.05;;;1.40;;
21979;SDS011;11154;48.558;9.234;2023-12-22T05:08:58;4.30;;;1.08;;
21979;SDS011;11154;48.558;9.234;2023-12-22T05:10:59;4.13;;;1.27;;
21979;SDS011;11154;48.558;9.234;2023-12-22T05:13:01;4.55;;;1.58;;
21979;SDS011;11154;48.558;9.234;2023-12-22T05:15:04;3.30;;;0.95;;
21979;SDS011;11154;48.558;9.234;2023-12-22T05:17:06;3.30;;;1.00;;
21979;SDS011;11154;48.558;9.234;2023-12-22T05:19:06;3.50;;;1.40;;
21979;SDS011;11154;48.558;9.234;2023-12-22T05:21:11;2.15;;;1.05;;
21979;SDS011;11154;48.558;9.234;2023-12-22T05:23:15;6.45;;;1.35;;
21979;SDS011;11154;48.558;9.234;2023-12-22T05:25:16;4.07;;;1.10;;
21979;SDS011;11154;48.558;9.234;2023-12-22T05:27:18;5.07;;;1.50;;
21979;SDS011;11154;48.558;9.234;2023-12-22T05:29:20;4.63;;;1.50;;
21979;SDS011;11154;48.558;9.234;2023-12-22T05:31:22;3.95;;;1.30;;
21979;SDS011;11154;48.558;9.234;2023-12-22T05:33:24;5.03;;;1.48;;
21979;SDS011;11154;48.558;9.234;2023-12-22T05:35:25;6.30;;;1.75;;
21979;SDS011;11154;48.558;9.234;2023-12-22T05:37:27;9.10;;;1.67;;
21979;SDS011;11154;48.558;9.234;2023-12-22T05:39:30;7.47;;;1.83;;
21979;SDS011;11154;48.558;9.234;2023-12-22T05:41:32;4.80;;;1.40;;
21979;SDS011;11154;48.558;9.234;2023-12-22T05:43:34;4.43;;;1.52;;
21979;SDS011;11154;48.558;9.234;2023-12-22T05:45:35;6.70;;;1.90;;
21979;SDS011;11154;48.558;9.234;2023-12-22T05:47:37;4.63;;;1.25;;
21979;SDS011;11154;48.558;9.234;2023-12-22T05:49:39;6.60;;;1.50;;
21979;SDS011;11154;48.558;9.234;2023-12-22T05:51:41;9.57;;;2.33;;
21979;SDS011;11154;48.558;9.234;2023-12-22T05:53:43;7.28;;;1.70;;
21979;SDS011;11154;48.558;9.234;2023-12-22T05:55:46;4.95;;;1.65;;
21979;SDS011;11154;48.558;9.234;2023-12-22T05:57:46;6.97;;;1.92;;
21979;SDS011;11154;48.558;9.234;2023-12-22T05:59:48;8.38;;;1.77;;
21979;SDS011;11154;48.558;9.234;2023-12-22T06:01:52;6.78;;;2.10;;
21979;SDS011;11154;48.558;9.234;2023-12-22T06:03:54;7.25;;;1.73;;
21979;SDS011;11154;48.558;9.234;2023-12-22T06:05:56;7.00;;;2.17;;
21979;SDS011;11154;48.558;9.234;2023-12-22T06:07:57;7.80;;;2.00;;
21979;SDS011;11154;48.558;9.234;2023-12-22T06:09:59;7.32;;;1.80;;
21979;SDS011;11154;48.558;9.234;2023-12-22T06:12:02;5.20;;;1.80;;
21979;SDS011;11154;48.558;9.234;2023-12-22T06:14:05;7.80;;;1.77;;
21979;SDS011;11154;48.558;9.234;2023-12-22T06:16:06;5.30;;;1.52;;
21979;SDS011;11154;48.558;9.234;2023-12-22T06:18:13;8.13;;;1.98;;
21979;SDS011;11154;48.558;9.234;2023-12-22T06:20:14;6.60;;;1.73;;
21979;SDS011;11154;48.558;9.234;2023-12-22T06:22:16;9.07;;;1.67;;
21979;SDS011;11154;48.558;9.234;2023-12-22T06:24:18;8.27;;;1.75;;
21979;SDS011;11154;48.558;9.234;2023-12-22T06:26:19;4.82;;;1.58;;
21979;SDS011;11154;48.558;9.234;2023-12-22T06:28:21;6.00;;;1.85;;
21979;SDS011;11154;48.558;9.234;2023-12-22T06:30:23;5.47;;;1.63;;
21979;SDS011;11154;48.558;9.234;2023-12-22T06:32:25;6.45;;;1.45;;
21979;SDS011;11154;48.558;9.234;2023-12-22T06:34:25;8.35;;;1.40;;
21979;SDS011;11154;48.558;9.234;2023-12-22T06:36:27;5.55;;;1.30;;
21979;SDS011;11154;48.558;9.234;2023-12-22T06:38:30;5.43;;;1.50;;
21979;SDS011;11154;48.558;9.234;2023-12-22T06:40:32;5.85;;;1.48;;
21979;SDS011;11154;48.558;9.234;2023-12-22T06:42:34;5.18;;;1.35;;
21979;SDS011;11154;48.558;9.234;2023-12-22T06:44:37;7.90;;;1.38;;
21979;SDS011;11154;48.558;9.234;2023-12-22T06:46:38;5.60;;;1.60;;
21979;SDS011;11154;48.558;9.234;2023-12-22T06:48:40;8.23;;;1.65;;
21979;SDS011;11154;48.558;9.234;2023-12-22T06:50:42;6.88;;;1.80;;
21979;SDS011;11154;48.558;9.234;2023-12-22T06:52:44;6.45;;;1.60;;
21979;SDS011;11154;48.558;9.234;2023-12-22T06:54:46;5.70;;;1.40;;
21979;SDS011;11154;48.558;9.234;2023-12-22T06:56:47;5.97;;;1.58;;
21979;SDS011;11154;48.558;9.234;2023-12-22T06:58:50;8.85;;;2.03;;
21979;SDS011;11154;48.558;9.234;2023-12-22T07:00:53;6.57;;;1.70;;
21979;SDS011;11154;48.558;9.234;2023-12-22T07:02:56;3.97;;;1.40;;
21979;SDS011;11154;48.558;9.234;2023-12-22T07:07:36;6.43;;;1.67;;
21979;SDS011;11154;48.558;9.234;2023-12-22T07:09:37;6.85;;;1.40;;
21979;SDS011;11154;48.558;9.234;2023-12-22T07:11:40;6.47;;;1.50;;
21979;SDS011;11154;48.558;9.234;2023-12-22T07:13:42;7.80;;;2.00;;
21979;SDS011;11154;48.558;9.234;2023-12-22T07:15:44;5.85;;;1.45;;
21979;SDS011;11154;48.558;9.234;2023-12-22T07:17:47;4.05;;;1.90;;
21979;SDS011;11154;48.558;9.234;2023-12-22T07:19:48;9.02;;;2.08;;
21979;SDS011;11154;48.558;9.234;2023-12-22T07:21:52;7.35;;;1.85;;
21979;SDS011;11154;48.558;9.234;2023-12-22T07:23:53;4.78;;;1.40;;
21979;SDS011;11154;48.558;9.234;2023-12-22T07:25:54;5.10;;;1.38;;
21979;SDS011;11154;48.558;9.234;2023-12-22T07:27:56;5.85;;;1.60;;
21979;SDS011;11154;48.558;9.234;2023-12-22T07:29:56;5.97;;;1.50;;
21979;SDS011;11154;48.558;9.234;2023-12-22T07:31:58;4.43;;;1.40;;
21979;SDS011;11154;48.558;9.234;2023-12-22T07:34:01;4.93;;;1.50;;
21979;SDS011;11154;48.558;9.234;2023-12-22T07:36:03;8.00;;;1.58;;
21979;SDS011;11154;48.558;9.234;2023-12-22T07:38:05;7.60;;;1.60;;
21979;SDS011;11154;48.558;9.234;2023-12-22T07:40:07;8.90;;;2.05;;
21979;SDS011;11154;48.558;9.234;2023-12-22T07:42:10;5.15;;;1.92;;
21979;SDS011;11154;48.558;9.234;2023-12-22T07:44:11;7.28;;;1.85;;
21979;SDS011;11154;48.558;9.234;2023-12-22T07:46:16;7.80;;;1.80;;
21979;SDS011;11154;48.558;9.234;2023-12-22T07:48:17;7.57;;;1.65;;
21979;SDS011;11154;48.558;9.234;2023-12-22T07:50:20;6.50;;;1.98;;
21979;SDS011;11154;48.558;9.234;2023-12-22T07:52:22;9.68;;;1.73;;
21979;SDS011;11154;48.558;9.234;2023-12-22T07:54:23;7.18;;;1.73;;
21979;SDS011;11154;48.558;9.234;2023-12-22T07:56:26;12.13;;;2.10;;
21979;SDS011;11154;48.558;9.234;2023-12-22T07:58:28;5.57;;;1.60;;
21979;SDS011;11154;48.558;9.234;2023-12-22T08:00:28;5.60;;;1.38;;
21979;SDS011;11154;48.558;9.234;2023-12-22T08:02:30;8.20;;;2.08;;
21979;SDS011;11154;48.558;9.234;2023-12-22T08:04:32;8.32;;;1.80;;
21979;SDS011;11154;48.558;9.234;2023-12-22T08:06:35;7.68;;;1.85;;
21979;SDS011;11154;48.558;9.234;2023-12-22T08:08:36;9.07;;;1.88;;
21979;SDS011;11154;48.558;9.234;2023-12-22T08:10:38;8.00;;;1.70;;
21979;SDS011;11154;48.558;9.234;2023-12-22T08:12:39;6.55;;;2.28;;
21979;SDS011;11154;48.558;9.234;2023-12-22T08:14:41;6.93;;;1.73;;
21979;SDS011;11154;48.558;9.234;2023-12-22T08:16:43;8.38;;;2.33;;
21979;SDS011;11154;48.558;9.234;2023-12-22T08:18:44;6.00;;;1.55;;
21979;SDS011;11154;48.558;9.234;2023-12-22T08:20:46;6.80;;;2.10;;
21979;SDS011;11154;48.558;9.234;2023-12-22T08:22:51;9.65;;;1.73;;
21979;SDS011;11154;48.558;9.234;2023-12-22T08:24:52;8.40;;;1.63;;
21979;SDS011;11154;48.558;9.234;2023-12-22T08:26:54;9.15;;;1.90;;
21979;SDS011;11154;48.558;9.234;2023-12-22T08:28:55;10.05;;;2.10;;
21979;SDS011;11154;48.558;9.234;2023-12-22T08:30:57;5.38;;;1.60;;
21979;SDS011;11154;48.558;9.234;2023-12-22T08:32:58;8.15;;;2.40;;
21979;SDS011;11154;48.558;9.234;2023-12-22T08:34:59;3.80;;;1.83;;
21979;SDS011;11154;48.558;9.234;2023-12-22T08:37:01;8.57;;;2.58;;
21979;SDS011;11154;48.558;9.234;2023-12-22T08:39:04;11.25;;;2.20;;
21979;SDS011;11154;48.558;9.234;2023-12-22T08:41:06;10.85;;;1.77;;
21979;SDS011;11154;48.558;9.234;2023-12-22T08:43:08;7.65;;;2.15;;
21979;SDS011;11154;48.558;9.234;2023-12-22T08:45:10;10.35;;;2.78;;
21979;SDS011;11154;48.558;9.234;2023-12-22T08:47:11;9.57;;;2.15;;
21979;SDS011;11154;48.558;9.234;2023-12-22T08:49:13;5.80;;;1.63;;
21979;SDS011;11154;48.558;9.234;2023-12-22T08:51:13;8.25;;;1.83;;
21979;SDS011;11154;48.558;9.234;2023-12-22T08:53:15;11.15;;;2.30;;
21979;SDS011;11154;48.558;9.234;2023-12-22T08:55:18;12.43;;;3.08;;
21979;SDS011;11154;48.558;9.234;2023-12-22T08:57:19;9.52;;;2.15;;
21979;SDS011;11154;48.558;9.234;2023-12-22T08:59:21;8.20;;;1.50;;
21979;SDS011;11154;48.558;9.234;2023-12-22T09:01:23;9.45;;;1.90;;
21979;SDS011;11154;48.558;9.234;2023-12-22T09:03:24;9.85;;;2.45;;
21979;SDS011;11154;48.558;9.234;2023-12-22T09:05:27;7.35;;;1.88;;
21979;SDS011;11154;48.558;9.234;2023-12-22T09:07:27;9.10;;;1.70;;
21979;SDS011;11154;48.558;9.234;2023-12-22T09:09:29;5.82;;;1.60;;
21979;SDS011;11154;48.558;9.234;2023-12-22T09:11:32;6.20;;;2.03;;
21979;SDS011;11154;48.558;9.234;2023-12-22T09:13:34;6.80;;;1.65;;
21979;SDS011;11154;48.558;9.234;2023-12-22T09:15:35;6.60;;;1.73;;
21979;SDS011;11154;48.558;9.234;2023-12-22T09:17:37;7.20;;;1.70;;
21979;SDS011;11154;48.558;9.234;2023-12-22T09:19:38;8.25;;;2.00;;
21979;SDS011;11154;48.558;9.234;2023-12-22T09:21:39;9.38;;;2.03;;
21979;SDS011;11154;48.558;9.234;2023-12-22T09:23:44;9.38;;;1.95;;
21979;SDS011;11154;48.558;9.234;2023-12-22T09:25:46;6.57;;;1.73;;
21979;SDS011;11154;48.558;9.234;2023-12-22T09:27:49;8.80;;;1.95;;
21979;SDS011;11154;48.558;9.234;2023-12-22T09:29:51;9.52;;;2.03;;
21979;SDS011;11154;48.558;9.234;2023-12-22T09:31:52;3.85;;;1.48;;
21979;SDS011;11154;48.558;9.234;2023-12-22T09:33:54;7.78;;;2.08;;
21979;SDS011;11154;48.558;9.234;2023-12-22T09:35:56;8.35;;;1.95;;
21979;SDS011;11154;48.558;9.234;2023-12-22T09:37:57;6.35;;;1.77;;
21979;SDS011;11154;48.558;9.234;2023-12-22T09:39:58;7.18;;;2.10;;
21979;SDS011;11154;48.558;9.234;2023-12-22T09:42:00;6.28;;;1.80;;
21979;SDS011;11154;48.558;9.234;2023-12-22T09:44:03;6.93;;;2.08;;
21979;SDS011;11154;48.558;9.234;2023-12-22T09:46:06;5.80;;;1.60;;
21979;SDS011;11154;48.558;9.234;2023-12-22T09:48:10;6.65;;;1.55;;
21979;SDS011;11154;48.558;9.234;2023-12-22T09:50:17;9.70;;;2.10;;
21979;SDS011;11154;48.558;9.234;2023-12-22T09:52:18;5.88;;;1.83;;
21979;SDS011;11154;48.558;9.234;2023-12-22T09:54:20;8.90;;;1.95;;
21979;SDS011;11154;48.558;9.234;2023-12-22T09:56:23;9.98;;;2.25;;
21979;SDS011;11154;48.558;9.234;2023-12-22T09:58:26;8.70;;;1.98;;
21979;SDS011;11154;48.558;9.234;2023-12-22T10:00:29;6.95;;;1.73;;
21979;SDS011;11154;48.558;9.234;2023-12-22T10:02:32;4.70;;;1.50;;
21979;SDS011;11154;48.558;9.234;2023-12-22T10:04:35;9.98;;;1.98;;
21979;SDS011;11154;48.558;9.234;2023-12-22T10:06:36;9.00;;;2.35;;
21979;SDS011;11154;48.558;9.234;2023-12-22T10:08:38;9.63;;;2.63;;
21979;SDS011;11154;48.558;9.234;2023-12-22T10:10:41;8.25;;;2.20;;
21979;SDS011;11154;48.558;9.234;2023-12-22T10:12:43;6.70;;;2.30;;
21979;SDS011;11154;48.558;9.234;2023-12-22T10:14:46;10.95;;;4.13;;
21979;SDS011;11154;48.558;9.234;2023-12-22T10:16:49;10.80;;;2.58;;
21979;SDS011;11154;48.558;9.234;2023-12-22T10:18:51;8.05;;;2.25;;
21979;SDS011;11154;48.558;9.234;2023-12-22T10:20:52;8.00;;;2.00;;
21979;SDS011;11154;48.558;9.234;2023-12-22T10:22:54;7.10;;;2.20;;
21979;SDS011;11154;48.558;9.234;2023-12-22T10:24:55;8.80;;;2.05;;
21979;SDS011;11154;48.558;9.234;2023-12-22T10:26:57;9.32;;;2.10;;
21979;SDS011;11154;48.558;9.234;2023-12-22T10:28:58;8.02;;;2.35;;
21979;SDS011;11154;48.558;9.234;2023-12-22T10:31:01;8.65;;;1.88;;
21979;SDS011;11154;48.558;9.234;2023-12-22T10:33:07;10.15;;;2.10;;
21979;SDS011;11154;48.558;9.234;2023-12-22T10:35:08;11.88;;;2.33;;
21979;SDS011;11154;48.558;9.234;2023-12-22T10:37:10;10.45;;;2.00;;
21979;SDS011;11154;48.558;9.234;2023-12-22T10:39:12;12.80;;;2.55;;
21979;SDS011;11154;48.558;9.234;2023-12-22T10:41:14;8.68;;;2.30;;
21979;SDS011;11154;48.558;9.234;2023-12-22T10:43:16;9.60;;;1.80;;
21979;SDS011;11154;48.558;9.234;2023-12-22T10:45:18;11.93;;;2.40;;
21979;SDS011;11154;48.558;9.234;2023-12-22T10:47:20;8.45;;;2.25;;
21979;SDS011;11154;48.558;9.234;2023-12-22T10:49:25;11.23;;;2.30;;
21979;SDS011;11154;48.558;9.234;2023-12-22T10:51:28;10.85;;;2.65;;
21979;SDS011;11154;48.558;9.234;2023-12-22T10:53:32;8.90;;;2.72;;
21979;SDS011;11154;48.558;9.234;2023-12-22T10:55:34;5.70;;;1.95;;
21979;SDS011;11154;48.558;9.234;2023-12-22T10:57:35;7.75;;;2.28;;
21979;SDS011;11154;48.558;9.234;2023-12-22T10:59:39;11.35;;;2.60;;
21979;SDS011;11154;48.558;9.234;2023-12-22T11:01:46;13.35;;;4.22;;
21979;SDS011;11154;48.558;9.234;2023-12-22T11:03:50;14.77;;;4.72;;
21979;SDS011;11154;48.558;9.234;2023-12-22T11:05:53;9.95;;;2.90;;
21979;SDS011;11154;48.558;9.234;2023-12-22T11:07:59;8.55;;;2.05;;
21979;SDS011;11154;48.558;9.234;2023-12-22T11:10:03;9.13;;;2.33;;
21979;SDS011;11154;48.558;9.234;2023-12-22T11:12:06;8.02;;;2.20;;
21979;SDS011;11154;48.558;9.234;2023-12-22T11:14:08;8.10;;;2.28;;
21979;SDS011;11154;48.558;9.234;2023-12-22T11:16:10;8.27;;;2.15;;
21979;SDS011;11154;48.558;9.234;2023-12-22T11:18:13;5.30;;;1.98;;
21979;SDS011;11154;48.558;9.234;2023-12-22T11:20:16;6.70;;;2.35;;
21979;SDS011;11154;48.558;9.234;2023-12-22T11:22:20;6.68;;;1.77;;
21979;SDS011;11154;48.558;9.234;2023-12-22T11:24:23;7.88;;;2.28;;
21979;SDS011;11154;48.558;9.234;2023-12-22T11:26:26;7.85;;;2.10;;
21979;SDS011;11154;48.558;9.234;2023-12-22T11:28:27;6.13;;;2.00;;
21979;SDS011;11154;48.558;9.234;2023-12-22T11:30:31;6.53;;;1.98;;
21979;SDS011;11154;48.558;9.234;2023-12-22T11:32:34;5.88;;;1.95;;
21979;SDS011;11154;48.558;9.234;2023-12-22T11:34:36;7.88;;;2.28;;
21979;SDS011;11154;48.558;9.234;2023-12-22T11:36:39;7.35;;;1.85;;
21979;SDS011;11154;48.558;9.234;2023-12-22T11:38:45;9.45;;;2.20;;
21979;SDS011;11154;48.558;9.234;2023-12-22T11:40:47;8.00;;;2.40;;
21979;SDS011;11154;48.558;9.234;2023-12-22T11:42:50;6.80;;;1.90;;
21979;SDS011;11154;48.558;9.234;2023-12-22T11:44:54;5.97;;;2.03;;
21979;SDS011;11154;48.558;9.234;2023-12-22T11:47:05;6.13;;;2.13;;
21979;SDS011;11154;48.558;9.234;2023-12-22T11:49:08;9.73;;;2.20;;
21979;SDS011;11154;48.558;9.234;2023-12-22T11:51:12;8.02;;;2.08;;
21979;SDS011;11154;48.558;9.234;2023-12-22T11:53:17;8.98;;;2.00;;
21979;SDS011;11154;48.558;9.234;2023-12-22T11:55:29;6.43;;;1.63;;
21979;SDS011;11154;48.558;9.234;2023-12-22T11:57:57;5.45;;;1.90;;
21979;SDS011;11154;48.558;9.234;2023-12-22T12:00:02;8.98;;;1.70;;
21979;SDS011;11154;48.558;9.234;2023-12-22T12:02:07;6.22;;;1.75;;
21979;SDS011;11154;48.558;9.234;2023-12-22T12:04:09;6.20;;;1.50;;
21979;SDS011;11154;48.558;9.234;2023-12-22T12:06:13;5.90;;;1.70;;
21979;SDS011;11154;48.558;9.234;2023-12-22T12:08:15;6.22;;;1.70;;
21979;SDS011;11154;48.558;9.234;2023-12-22T12:13:03;2.20;;;1.00;;
21979;SDS011;11154;48.558;9.234;2023-12-22T12:15:09;2.38;;;1.02;;
21979;SDS011;11154;48.558;9.234;2023-12-22T12:17:11;3.53;;;1.27;;
21979;SDS011;11154;48.558;9.234;2023-12-22T12:19:18;3.30;;;1.05;;
21979;SDS011;11154;48.558;9.234;2023-12-22T12:21:20;1.77;;;0.90;;
21979;SDS011;11154;48.558;9.234;2023-12-22T12:23:23;3.08;;;1.27;;